sensor_id;sensor_type;location;lat;lon;timestamp;pressure;altitude;pressure_sealevel;temperature;humidity
66742;BME280;53654;54.152;19.432;2023-08-01T00:01:08;100307.89;;;19.11;76.33
66742;BME280;53654;54.152;19.432;2023-08-01T00:03:37;100305.56;;;19.11;76.28
66742;BME280;53654;54.152;19.432;2023-08-01T00:06:05;100304.27;;;19.12;76.23
66742;BME280;53654;54.152;19.432;2023-08-01T00:08:33;100304.40;;;19.13;76.14
66742;BME280;53654;54.152;19.432;2023-08-01T00:11:01;100301.66;;;19.15;76.14
66742;BME280;53654;54.152;19.432;2023-08-01T00:13:29;100298.39;;;19.17;76.16
66742;BME280;53654;54.152;19.432;2023-08-01T00:15:58;100297.09;;;19.18;75.89
66742;BME280;53654;54.152;19.432;2023-08-01T00:18:29;100295.11;;;19.19;75.69
66742;BME280;53654;54.152;19.432;2023-08-01T00:20:56;100291.72;;;19.19;75.70
66742;BME280;53654;54.152;19.432;2023-08-01T00:23:25;100287.77;;;19.20;75.42
66742;BME280;53654;54.152;19.432;2023-08-01T00:25:52;100284.39;;;19.20;75.24
66742;BME280;53654;54.152;19.432;2023-08-01T00:28:24;100280.72;;;19.20;75.21
66742;BME280;53654;54.152;19.432;2023-08-01T00:31:04;100272.77;;;19.19;75.20
66742;BME280;53654;54.152;19.432;2023-08-01T00:33:33;100267.27;;;19.17;75.30
66742;BME280;53654;54.152;19.432;2023-08-01T00:36:01;100263.34;;;19.17;75.20
66742;BME280;53654;54.152;19.432;2023-08-01T00:38:29;100259.84;;;19.17;75.20
66742;BME280;53654;54.152;19.432;2023-08-01T00:40:57;100257.40;;;19.16;75.16
66742;BME280;53654;54.152;19.432;2023-08-01T00:43:25;100251.40;;;19.16;75.11
66742;BME280;53654;54.152;19.432;2023-08-01T00:45:58;100249.11;;;19.16;75.01
66742;BME280;53654;54.152;19.432;2023-08-01T00:48:28;100250.74;;;19.15;74.86
66742;BME280;53654;54.152;19.432;2023-08-01T00:50:57;100244.81;;;19.13;74.79
66742;BME280;53654;54.152;19.432;2023-08-01T00:53:27;100245.23;;;19.12;74.65
66742;BME280;53654;54.152;19.432;2023-08-01T00:55:57;100240.87;;;19.11;74.73
66742;BME280;53654;54.152;19.432;2023-08-01T00:58:25;100239.84;;;19.10;74.61
66742;BME280;53654;54.152;19.432;2023-08-01T01:00:54;100244.99;;;19.10;74.64
66742;BME280;53654;54.152;19.432;2023-08-01T01:03:24;100238.45;;;19.10;74.64
66742;BME280;53654;54.152;19.432;2023-08-01T01:06:08;100235.29;;;19.10;74.52
66742;BME280;53654;54.152;19.432;2023-08-01T01:08:37;100231.80;;;19.09;74.70
66742;BME280;53654;54.152;19.432;2023-08-01T01:11:05;100227.33;;;19.10;74.43
66742;BME280;53654;54.152;19.432;2023-08-01T01:13:34;100225.67;;;19.11;74.46
66742;BME280;53654;54.152;19.432;2023-08-01T01:16:02;100221.41;;;19.11;74.52
66742;BME280;53654;54.152;19.432;2023-08-01T01:18:30;100224.70;;;19.13;74.49
66742;BME280;53654;54.152;19.432;2023-08-01T01:20:58;100223.73;;;19.14;74.36
66742;BME280;53654;54.152;19.432;2023-08-01T01:23:27;100221.18;;;19.16;74.34
66742;BME280;53654;54.152;19.432;2023-08-01T01:25:56;100218.42;;;19.14;74.28
66742;BME280;53654;54.152;19.432;2023-08-01T01:28:26;100209.77;;;19.14;74.41
66742;BME280;53654;54.152;19.432;2023-08-01T01:30:54;100214.16;;;19.15;74.29
66742;BME280;53654;54.152;19.432;2023-08-01T01:33:23;100206.23;;;19.14;74.37
66742;BME280;53654;54.152;19.432;2023-08-01T01:35:51;100203.77;;;19.14;74.24
66742;BME280;53654;54.152;19.432;2023-08-01T01:38:21;100202.17;;;19.14;74.16
66742;BME280;53654;54.152;19.432;2023-08-01T01:40:49;100197.97;;;19.13;74.32
66742;BME280;53654;54.152;19.432;2023-08-01T01:43:17;100191.16;;;19.15;74.29
66742;BME280;53654;54.152;19.432;2023-08-01T01:45:45;100188.66;;;19.15;74.19
66742;BME280;53654;54.152;19.432;2023-08-01T01:48:13;100177.59;;;19.14;74.21
66742;BME280;53654;54.152;19.432;2023-08-01T01:50:42;100176.16;;;19.15;74.12
66742;BME280;53654;54.152;19.432;2023-08-01T01:53:11;100173.88;;;19.14;74.24
66742;BME280;53654;54.152;19.432;2023-08-01T01:55:39;100169.78;;;19.15;74.09
66742;BME280;53654;54.152;19.432;2023-08-01T01:58:07;100164.10;;;19.15;73.92
66742;BME280;53654;54.152;19.432;2023-08-01T02:00:35;100159.14;;;19.15;73.96
66742;BME280;53654;54.152;19.432;2023-08-01T02:03:04;100164.83;;;19.15;74.07
66742;BME280;53654;54.152;19.432;2023-08-01T02:05:32;100158.27;;;19.15;74.16
66742;BME280;53654;54.152;19.432;2023-08-01T02:08:00;100157.38;;;19.15;73.90
66742;BME280;53654;54.152;19.432;2023-08-01T02:10:28;100156.67;;;19.15;73.96
66742;BME280;53654;54.152;19.432;2023-08-01T02:12:56;100150.55;;;19.14;73.93
66742;BME280;53654;54.152;19.432;2023-08-01T02:15:24;100149.34;;;19.14;74.13
66742;BME280;53654;54.152;19.432;2023-08-01T02:17:53;100147.59;;;19.13;74.45
66742;BME280;53654;54.152;19.432;2023-08-01T02:20:21;100147.97;;;19.13;74.25
66742;BME280;53654;54.152;19.432;2023-08-01T02:22:49;100144.66;;;19.12;74.57
66742;BME280;53654;54.152;19.432;2023-08-01T02:25:17;100147.45;;;19.13;74.61
66742;BME280;53654;54.152;19.432;2023-08-01T02:27:45;100145.09;;;19.11;74.57
66742;BME280;53654;54.152;19.432;2023-08-01T02:30:13;100145.39;;;19.11;74.56
66742;BME280;53654;54.152;19.432;2023-08-01T02:32:41;100144.35;;;19.11;74.73
66742;BME280;53654;54.152;19.432;2023-08-01T02:35:11;100147.40;;;19.10;74.65
66742;BME280;53654;54.152;19.432;2023-08-01T02:37:39;100145.29;;;19.10;74.49
66742;BME280;53654;54.152;19.432;2023-08-01T02:40:08;100143.02;;;19.10;74.50
66742;BME280;53654;54.152;19.432;2023-08-01T02:42:36;100141.00;;;19.08;74.58
66742;BME280;53654;54.152;19.432;2023-08-01T02:45:05;100140.72;;;19.06;74.70
66742;BME280;53654;54.152;19.432;2023-08-01T02:47:33;100139.39;;;19.05;74.71
66742;BME280;53654;54.152;19.432;2023-08-01T02:50:01;100135.57;;;19.03;74.85
66742;BME280;53654;54.152;19.432;2023-08-01T02:52:30;100132.33;;;19.05;74.74
66742;BME280;53654;54.152;19.432;2023-08-01T02:54:59;100134.77;;;19.05;74.62
66742;BME280;53654;54.152;19.432;2023-08-01T02:57:27;100127.20;;;19.04;74.77
66742;BME280;53654;54.152;19.432;2023-08-01T02:59:55;100123.55;;;19.07;74.85
66742;BME280;53654;54.152;19.432;2023-08-01T03:02:24;100124.73;;;19.08;74.62
66742;BME280;53654;54.152;19.432;2023-08-01T03:04:53;100121.92;;;19.07;74.65
66742;BME280;53654;54.152;19.432;2023-08-01T03:07:21;100121.54;;;19.08;74.68
66742;BME280;53654;54.152;19.432;2023-08-01T03:09:49;100119.88;;;19.06;74.70
66742;BME280;53654;54.152;19.432;2023-08-01T03:12:17;100117.25;;;19.05;75.00
66742;BME280;53654;54.152;19.432;2023-08-01T03:14:45;100116.39;;;19.05;75.11
66742;BME280;53654;54.152;19.432;2023-08-01T03:17:15;100109.65;;;19.02;75.39
66742;BME280;53654;54.152;19.432;2023-08-01T03:19:44;100111.56;;;18.95;75.98
66742;BME280;53654;54.152;19.432;2023-08-01T03:22:12;100107.30;;;18.93;76.00
66742;BME280;53654;54.152;19.432;2023-08-01T03:24:40;100100.04;;;18.90;76.18
66742;BME280;53654;54.152;19.432;2023-08-01T03:27:08;100090.30;;;18.87;76.33
66742;BME280;53654;54.152;19.432;2023-08-01T03:29:36;100085.54;;;18.83;76.44
66742;BME280;53654;54.152;19.432;2023-08-01T03:32:05;100087.16;;;18.79;76.56
66742;BME280;53654;54.152;19.432;2023-08-01T03:34:33;100087.64;;;18.74;76.70
66742;BME280;53654;54.152;19.432;2023-08-01T03:37:01;100084.52;;;18.73;76.68
66742;BME280;53654;54.152;19.432;2023-08-01T03:39:29;100091.21;;;18.73;76.61
66742;BME280;53654;54.152;19.432;2023-08-01T03:41:57;100081.08;;;18.71;76.66
66742;BME280;53654;54.152;19.432;2023-08-01T03:44:25;100080.98;;;18.73;76.60
66742;BME280;53654;54.152;19.432;2023-08-01T03:46:53;100083.76;;;18.74;76.61
66742;BME280;53654;54.152;19.432;2023-08-01T03:49:21;100086.95;;;18.77;76.61
66742;BME280;53654;54.152;19.432;2023-08-01T03:51:50;100091.23;;;18.79;76.60
66742;BME280;53654;54.152;19.432;2023-08-01T03:54:18;100092.02;;;18.81;76.61
66742;BME280;53654;54.152;19.432;2023-08-01T03:56:46;100090.73;;;18.82;76.63
66742;BME280;53654;54.152;19.432;2023-08-01T03:59:15;100088.40;;;18.83;76.60
66742;BME280;53654;54.152;19.432;2023-08-01T04:01:43;100091.35;;;18.84;76.61
66742;BME280;53654;54.152;19.432;2023-08-01T04:04:11;100090.89;;;18.86;76.56
66742;BME280;53654;54.152;19.432;2023-08-01T04:06:39;100088.77;;;18.86;76.38
66742;BME280;53654;54.152;19.432;2023-08-01T04:09:08;100090.47;;;18.87;76.35
66742;BME280;53654;54.152;19.432;2023-08-01T04:11:36;100090.77;;;18.88;76.19
66742;BME280;53654;54.152;19.432;2023-08-01T04:14:04;100089.74;;;18.87;75.89
66742;BME280;53654;54.152;19.432;2023-08-01T04:16:32;100087.19;;;18.89;75.93
66742;BME280;53654;54.152;19.432;2023-08-01T04:19:00;100081.98;;;18.90;75.72
66742;BME280;53654;54.152;19.432;2023-08-01T04:21:28;100083.48;;;18.92;75.60
66742;BME280;53654;54.152;19.432;2023-08-01T04:23:56;100079.23;;;18.92;75.36
66742;BME280;53654;54.152;19.432;2023-08-01T04:26:24;100074.15;;;18.91;75.32
66742;BME280;53654;54.152;19.432;2023-08-01T04:28:52;100067.67;;;18.93;75.32
66742;BME280;53654;54.152;19.432;2023-08-01T04:31:20;100062.55;;;18.93;75.12
66742;BME280;53654;54.152;19.432;2023-08-01T04:33:49;100063.81;;;18.96;75.04
66742;BME280;53654;54.152;19.432;2023-08-01T04:36:16;100062.63;;;18.98;75.16
66742;BME280;53654;54.152;19.432;2023-08-01T04:38:45;100062.03;;;19.00;75.04
66742;BME280;53654;54.152;19.432;2023-08-01T04:41:13;100059.23;;;18.99;75.09
66742;BME280;53654;54.152;19.432;2023-08-01T04:43:41;100057.52;;;19.02;74.93
66742;BME280;53654;54.152;19.432;2023-08-01T04:46:09;100055.80;;;19.04;75.15
66742;BME280;53654;54.152;19.432;2023-08-01T04:48:40;100053.25;;;19.06;75.12
66742;BME280;53654;54.152;19.432;2023-08-01T04:51:08;100050.82;;;19.08;75.47
66742;BME280;53654;54.152;19.432;2023-08-01T04:53:36;100052.51;;;19.10;75.81
66742;BME280;53654;54.152;19.432;2023-08-01T04:56:05;100047.33;;;19.07;75.76
66742;BME280;53654;54.152;19.432;2023-08-01T04:58:33;100047.09;;;19.09;75.47
66742;BME280;53654;54.152;19.432;2023-08-01T05:01:01;100048.10;;;19.09;75.43
66742;BME280;53654;54.152;19.432;2023-08-01T05:03:29;100046.61;;;19.11;75.41
66742;BME280;53654;54.152;19.432;2023-08-01T05:05:57;100050.69;;;19.14;75.43
66742;BME280;53654;54.152;19.432;2023-08-01T05:08:25;100048.86;;;19.15;75.32
66742;BME280;53654;54.152;19.432;2023-08-01T05:10:53;100050.94;;;19.15;75.38
66742;BME280;53654;54.152;19.432;2023-08-01T05:13:23;100053.80;;;19.18;75.19
66742;BME280;53654;54.152;19.432;2023-08-01T05:15:51;100053.64;;;19.21;75.01
66742;BME280;53654;54.152;19.432;2023-08-01T05:18:19;100052.78;;;19.24;75.06
66742;BME280;53654;54.152;19.432;2023-08-01T05:20:47;100048.41;;;19.26;75.25
66742;BME280;53654;54.152;19.432;2023-08-01T05:23:15;100044.20;;;19.29;75.03
66742;BME280;53654;54.152;19.432;2023-08-01T05:25:43;100038.27;;;19.30;75.14
66742;BME280;53654;54.152;19.432;2023-08-01T05:28:11;100037.48;;;19.31;75.01
66742;BME280;53654;54.152;19.432;2023-08-01T05:30:40;100036.31;;;19.33;74.92
66742;BME280;53654;54.152;19.432;2023-08-01T05:33:08;100035.87;;;19.35;74.85
66742;BME280;53654;54.152;19.432;2023-08-01T05:35:36;100032.72;;;19.35;74.65
66742;BME280;53654;54.152;19.432;2023-08-01T05:38:04;100035.33;;;19.35;74.53
66742;BME280;53654;54.152;19.432;2023-08-01T05:40:32;100039.68;;;19.37;74.65
66742;BME280;53654;54.152;19.432;2023-08-01T05:43:00;100036.80;;;19.38;74.59
66742;BME280;53654;54.152;19.432;2023-08-01T05:45:29;100040.97;;;19.39;74.68
66742;BME280;53654;54.152;19.432;2023-08-01T05:47:57;100044.38;;;19.41;75.04
66742;BME280;53654;54.152;19.432;2023-08-01T05:50:25;100037.14;;;19.41;74.93
66742;BME280;53654;54.152;19.432;2023-08-01T05:52:53;100037.02;;;19.40;75.03
66742;BME280;53654;54.152;19.432;2023-08-01T05:55:21;100035.59;;;19.40;75.50
66742;BME280;53654;54.152;19.432;2023-08-01T05:57:50;100038.02;;;19.41;75.84
66742;BME280;53654;54.152;19.432;2023-08-01T06:00:20;100035.45;;;19.39;75.97
66742;BME280;53654;54.152;19.432;2023-08-01T06:02:49;100036.87;;;19.39;76.08
66742;BME280;53654;54.152;19.432;2023-08-01T06:05:17;100036.15;;;19.40;76.46
66742;BME280;53654;54.152;19.432;2023-08-01T06:07:46;100034.44;;;19.39;76.66
66742;BME280;53654;54.152;19.432;2023-08-01T06:10:14;100033.76;;;19.38;76.74
66742;BME280;53654;54.152;19.432;2023-08-01T06:12:42;100031.45;;;19.38;76.85
66742;BME280;53654;54.152;19.432;2023-08-01T06:15:10;100029.91;;;19.37;76.88
66742;BME280;53654;54.152;19.432;2023-08-01T06:17:38;100027.27;;;19.37;77.25
66742;BME280;53654;54.152;19.432;2023-08-01T06:20:07;100022.98;;;19.35;77.47
66742;BME280;53654;54.152;19.432;2023-08-01T06:22:35;100017.29;;;19.32;77.67
66742;BME280;53654;54.152;19.432;2023-08-01T06:25:03;100015.44;;;19.31;77.87
66742;BME280;53654;54.152;19.432;2023-08-01T06:27:31;100016.00;;;19.30;78.03
66742;BME280;53654;54.152;19.432;2023-08-01T06:29:59;100012.83;;;19.30;78.31
66742;BME280;53654;54.152;19.432;2023-08-01T06:32:28;100011.59;;;19.30;78.07
66742;BME280;53654;54.152;19.432;2023-08-01T06:34:56;100011.27;;;19.32;78.28
66742;BME280;53654;54.152;19.432;2023-08-01T06:37:24;100008.63;;;19.32;77.99
66742;BME280;53654;54.152;19.432;2023-08-01T06:39:53;100009.13;;;19.33;78.02
66742;BME280;53654;54.152;19.432;2023-08-01T06:42:22;100006.45;;;19.33;78.18
66742;BME280;53654;54.152;19.432;2023-08-01T06:44:50;100002.15;;;19.34;78.69
66742;BME280;53654;54.152;19.432;2023-08-01T06:47:18;99998.40;;;19.35;78.51
66742;BME280;53654;54.152;19.432;2023-08-01T06:49:46;99994.83;;;19.35;78.76
66742;BME280;53654;54.152;19.432;2023-08-01T06:52:14;99994.95;;;19.36;79.24
66742;BME280;53654;54.152;19.432;2023-08-01T06:54:42;99998.89;;;19.42;79.32
66742;BME280;53654;54.152;19.432;2023-08-01T06:57:10;99993.70;;;19.46;79.68
66742;BME280;53654;54.152;19.432;2023-08-01T06:59:38;99982.55;;;19.49;79.92
66742;BME280;53654;54.152;19.432;2023-08-01T07:02:06;99977.55;;;19.53;80.05
66742;BME280;53654;54.152;19.432;2023-08-01T07:04:36;99981.19;;;19.58;80.12
66742;BME280;53654;54.152;19.432;2023-08-01T07:07:05;99978.43;;;19.59;80.08
66742;BME280;53654;54.152;19.432;2023-08-01T07:09:34;99979.41;;;19.61;79.64
66742;BME280;53654;54.152;19.432;2023-08-01T07:12:03;99976.11;;;19.63;79.92
66742;BME280;53654;54.152;19.432;2023-08-01T07:14:31;99978.23;;;19.67;79.61
66742;BME280;53654;54.152;19.432;2023-08-01T07:16:59;99976.00;;;19.68;79.67
66742;BME280;53654;54.152;19.432;2023-08-01T07:19:27;99976.25;;;19.70;79.92
66742;BME280;53654;54.152;19.432;2023-08-01T07:21:55;99976.06;;;19.70;80.06
66742;BME280;53654;54.152;19.432;2023-08-01T07:24:26;99975.36;;;19.70;80.19
66742;BME280;53654;54.152;19.432;2023-08-01T07:26:56;99977.54;;;19.69;80.57
66742;BME280;53654;54.152;19.432;2023-08-01T07:29:24;99973.45;;;19.69;80.83
66742;BME280;53654;54.152;19.432;2023-08-01T07:31:52;99975.28;;;19.65;81.13
66742;BME280;53654;54.152;19.432;2023-08-01T07:34:20;99973.17;;;19.65;81.17
66742;BME280;53654;54.152;19.432;2023-08-01T07:36:50;99971.16;;;19.63;81.28
66742;BME280;53654;54.152;19.432;2023-08-01T07:39:18;99974.48;;;19.60;81.73
66742;BME280;53654;54.152;19.432;2023-08-01T07:41:46;99970.05;;;19.57;81.77
66742;BME280;53654;54.152;19.432;2023-08-01T07:44:15;99963.08;;;19.52;81.27
66742;BME280;53654;54.152;19.432;2023-08-01T07:46:43;99960.61;;;19.49;81.63
66742;BME280;53654;54.152;19.432;2023-08-01T07:49:11;99964.48;;;19.47;82.08
66742;BME280;53654;54.152;19.432;2023-08-01T07:51:39;99967.38;;;19.45;82.64
66742;BME280;53654;54.152;19.432;2023-08-01T07:54:07;99966.66;;;19.42;82.56
66742;BME280;53654;54.152;19.432;2023-08-01T07:56:35;99968.33;;;19.41;82.80
66742;BME280;53654;54.152;19.432;2023-08-01T07:59:03;99961.77;;;19.41;82.84
66742;BME280;53654;54.152;19.432;2023-08-01T08:01:32;99961.02;;;19.42;83.05
66742;BME280;53654;54.152;19.432;2023-08-01T08:04:00;99962.04;;;19.43;83.22
66742;BME280;53654;54.152;19.432;2023-08-01T08:06:30;99960.16;;;19.42;83.49
66742;BME280;53654;54.152;19.432;2023-08-01T08:08:59;99958.88;;;19.39;83.76
66742;BME280;53654;54.152;19.432;2023-08-01T08:11:29;99960.97;;;19.37;84.15
66742;BME280;53654;54.152;19.432;2023-08-01T08:14:04;99959.64;;;19.35;84.44
66742;BME280;53654;54.152;19.432;2023-08-01T08:16:33;99955.86;;;19.33;84.66
66742;BME280;53654;54.152;19.432;2023-08-01T08:19:02;99953.08;;;19.33;84.48
66742;BME280;53654;54.152;19.432;2023-08-01T08:21:33;99951.25;;;19.30;84.31
66742;BME280;53654;54.152;19.432;2023-08-01T08:24:02;99944.27;;;19.29;84.15
66742;BME280;53654;54.152;19.432;2023-08-01T08:26:31;99942.58;;;19.27;84.15
66742;BME280;53654;54.152;19.432;2023-08-01T08:29:03;99939.37;;;19.28;84.40
66742;BME280;53654;54.152;19.432;2023-08-01T08:31:36;99937.10;;;19.28;84.43
66742;BME280;53654;54.152;19.432;2023-08-01T08:34:05;99940.09;;;19.28;83.99
66742;BME280;53654;54.152;19.432;2023-08-01T08:36:34;99936.34;;;19.28;83.77
66742;BME280;53654;54.152;19.432;2023-08-01T08:39:02;99937.48;;;19.30;83.92
66742;BME280;53654;54.152;19.432;2023-08-01T08:41:39;99932.02;;;19.30;83.64
66742;BME280;53654;54.152;19.432;2023-08-01T08:44:14;99934.39;;;19.29;83.47
66742;BME280;53654;54.152;19.432;2023-08-01T08:46:44;99931.70;;;19.29;83.18
66742;BME280;53654;54.152;19.432;2023-08-01T08:49:12;99929.64;;;19.31;83.12
66742;BME280;53654;54.152;19.432;2023-08-01T08:51:43;99928.54;;;19.32;82.58
66742;BME280;53654;54.152;19.432;2023-08-01T08:54:13;99926.02;;;19.32;82.40
66742;BME280;53654;54.152;19.432;2023-08-01T08:56:41;99927.53;;;19.34;82.22
66742;BME280;53654;54.152;19.432;2023-08-01T08:59:10;99929.40;;;19.36;81.79
66742;BME280;53654;54.152;19.432;2023-08-01T09:01:39;99929.36;;;19.36;81.88
66742;BME280;53654;54.152;19.432;2023-08-01T09:04:08;99925.48;;;19.36;81.85
66742;BME280;53654;54.152;19.432;2023-08-01T09:06:49;99922.45;;;19.36;81.80
66742;BME280;53654;54.152;19.432;2023-08-01T09:09:19;99924.27;;;19.35;81.88
66742;BME280;53654;54.152;19.432;2023-08-01T09:11:49;99923.54;;;19.36;82.25
66742;BME280;53654;54.152;19.432;2023-08-01T09:14:19;99919.11;;;19.36;82.40
66742;BME280;53654;54.152;19.432;2023-08-01T09:16:48;99917.65;;;19.37;82.41
66742;BME280;53654;54.152;19.432;2023-08-01T09:19:21;99918.10;;;19.38;82.90
66742;BME280;53654;54.152;19.432;2023-08-01T09:21:50;99920.44;;;19.37;83.19
66742;BME280;53654;54.152;19.432;2023-08-01T09:24:20;99918.04;;;19.36;83.32
66742;BME280;53654;54.152;19.432;2023-08-01T09:26:48;99918.90;;;19.36;83.52
66742;BME280;53654;54.152;19.432;2023-08-01T09:29:17;99917.30;;;19.34;83.20
66742;BME280;53654;54.152;19.432;2023-08-01T09:31:46;99916.27;;;19.30;83.29
66742;BME280;53654;54.152;19.432;2023-08-01T09:34:22;99913.27;;;19.24;83.88
66742;BME280;53654;54.152;19.432;2023-08-01T09:36:51;99911.40;;;19.19;83.94
66742;BME280;53654;54.152;19.432;2023-08-01T09:39:24;99908.49;;;19.18;84.86
66742;BME280;53654;54.152;19.432;2023-08-01T09:42:00;99909.41;;;19.17;85.47
66742;BME280;53654;54.152;19.432;2023-08-01T09:44:29;99906.16;;;19.12;85.53
66742;BME280;53654;54.152;19.432;2023-08-01T09:47:02;99910.93;;;19.09;85.58
66742;BME280;53654;54.152;19.432;2023-08-01T09:49:31;99904.98;;;19.08;86.15
66742;BME280;53654;54.152;19.432;2023-08-01T09:51:59;99904.13;;;19.08;86.77
66742;BME280;53654;54.152;19.432;2023-08-01T09:54:29;99897.70;;;19.06;86.71
66742;BME280;53654;54.152;19.432;2023-08-01T09:56:57;99896.45;;;19.03;87.06
66742;BME280;53654;54.152;19.432;2023-08-01T09:59:26;99891.61;;;19.04;87.31
66742;BME280;53654;54.152;19.432;2023-08-01T10:01:55;99891.69;;;19.03;87.50
66742;BME280;53654;54.152;19.432;2023-08-01T10:04:29;99888.82;;;19.03;87.69
66742;BME280;53654;54.152;19.432;2023-08-01T10:07:01;99889.77;;;19.02;88.13
66742;BME280;53654;54.152;19.432;2023-08-01T10:09:31;99887.42;;;18.99;88.35
66742;BME280;53654;54.152;19.432;2023-08-01T10:12:01;99887.34;;;18.98;88.32
66742;BME280;53654;54.152;19.432;2023-08-01T10:14:31;99884.54;;;18.94;88.38
66742;BME280;53654;54.152;19.432;2023-08-01T10:17:02;99885.25;;;18.91;88.93
66742;BME280;53654;54.152;19.432;2023-08-01T10:19:32;99885.27;;;18.88;89.60
66742;BME280;53654;54.152;19.432;2023-08-01T10:22:06;99886.66;;;18.82;90.21
66742;BME280;53654;54.152;19.432;2023-08-01T10:24:35;99881.93;;;18.78;90.66
66742;BME280;53654;54.152;19.432;2023-08-01T10:29:42;99879.33;;;18.74;91.09
66742;BME280;53654;54.152;19.432;2023-08-01T10:32:11;99881.52;;;18.73;91.32
66742;BME280;53654;54.152;19.432;2023-08-01T10:34:50;99875.05;;;18.72;91.14
66742;BME280;53654;54.152;19.432;2023-08-01T10:37:19;99872.61;;;18.67;91.92
66742;BME280;53654;54.152;19.432;2023-08-01T10:39:56;99873.55;;;18.67;92.08
66742;BME280;53654;54.152;19.432;2023-08-01T10:42:25;99870.77;;;18.66;91.68
66742;BME280;53654;54.152;19.432;2023-08-01T10:44:53;99867.88;;;18.67;91.97
66742;BME280;53654;54.152;19.432;2023-08-01T10:47:25;99865.61;;;18.70;92.27
66742;BME280;53654;54.152;19.432;2023-08-01T10:49:55;99861.88;;;18.74;92.00
66742;BME280;53654;54.152;19.432;2023-08-01T10:52:25;99853.59;;;18.76;92.05
66742;BME280;53654;54.152;19.432;2023-08-01T10:54:57;99852.32;;;18.77;92.11
66742;BME280;53654;54.152;19.432;2023-08-01T10:57:30;99849.60;;;18.78;91.72
66742;BME280;53654;54.152;19.432;2023-08-01T10:59:59;99848.89;;;18.78;91.85
66742;BME280;53654;54.152;19.432;2023-08-01T11:02:28;99844.36;;;18.80;91.89
66742;BME280;53654;54.152;19.432;2023-08-01T11:05:04;99843.59;;;18.81;91.98
66742;BME280;53654;54.152;19.432;2023-08-01T11:07:34;99839.91;;;18.84;92.12
66742;BME280;53654;54.152;19.432;2023-08-01T11:12:39;99836.19;;;18.93;92.22
66742;BME280;53654;54.152;19.432;2023-08-01T11:15:09;99830.38;;;18.99;92.25
66742;BME280;53654;54.152;19.432;2023-08-01T11:17:40;99830.04;;;19.02;91.92
66742;BME280;53654;54.152;19.432;2023-08-01T11:20:10;99823.81;;;19.09;91.37
66742;BME280;53654;54.152;19.432;2023-08-01T11:22:53;99826.17;;;19.14;90.39
66742;BME280;53654;54.152;19.432;2023-08-01T11:25:40;99817.17;;;19.16;90.05
66742;BME280;53654;54.152;19.432;2023-08-01T11:28:10;99817.71;;;19.19;89.89
66742;BME280;53654;54.152;19.432;2023-08-01T11:30:39;99811.19;;;19.22;89.62
66742;BME280;53654;54.152;19.432;2023-08-01T11:33:23;99807.35;;;19.24;89.14
66742;BME280;53654;54.152;19.432;2023-08-01T11:35:53;99805.39;;;19.24;88.86
66742;BME280;53654;54.152;19.432;2023-08-01T11:38:26;99810.35;;;19.27;88.93
66742;BME280;53654;54.152;19.432;2023-08-01T11:40:58;99805.84;;;19.28;88.67
66742;BME280;53654;54.152;19.432;2023-08-01T11:43:38;99797.77;;;19.30;88.79
66742;BME280;53654;54.152;19.432;2023-08-01T11:46:06;99796.30;;;19.31;88.88
66742;BME280;53654;54.152;19.432;2023-08-01T11:48:35;99798.38;;;19.35;88.68
66742;BME280;53654;54.152;19.432;2023-08-01T11:51:03;99798.55;;;19.41;88.53
66742;BME280;53654;54.152;19.432;2023-08-01T11:53:32;99800.39;;;19.48;87.80
66742;BME280;53654;54.152;19.432;2023-08-01T11:56:06;99792.90;;;19.56;87.46
66742;BME280;53654;54.152;19.432;2023-08-01T11:58:35;99793.66;;;19.61;86.84
66742;BME280;53654;54.152;19.432;2023-08-01T12:01:09;99791.19;;;19.67;86.17
66742;BME280;53654;54.152;19.432;2023-08-01T12:03:45;99786.41;;;19.70;85.47
66742;BME280;53654;54.152;19.432;2023-08-01T12:06:15;99784.52;;;19.69;84.49
66742;BME280;53654;54.152;19.432;2023-08-01T12:08:45;99772.57;;;19.70;84.73
66742;BME280;53654;54.152;19.432;2023-08-01T12:14:05;99769.86;;;19.74;83.91
66742;BME280;53654;54.152;19.432;2023-08-01T12:16:36;99765.75;;;19.75;83.78
66742;BME280;53654;54.152;19.432;2023-08-01T12:19:05;99761.95;;;19.79;83.86
66742;BME280;53654;54.152;19.432;2023-08-01T12:21:34;99762.70;;;19.84;83.98
66742;BME280;53654;54.152;19.432;2023-08-01T12:24:03;99760.45;;;19.86;84.17
66742;BME280;53654;54.152;19.432;2023-08-01T12:26:31;99757.94;;;19.87;84.06
66742;BME280;53654;54.152;19.432;2023-08-01T12:28:59;99756.27;;;19.88;84.19
66742;BME280;53654;54.152;19.432;2023-08-01T12:31:28;99760.89;;;19.90;83.70
66742;BME280;53654;54.152;19.432;2023-08-01T12:33:56;99759.77;;;19.91;83.61
66742;BME280;53654;54.152;19.432;2023-08-01T12:36:24;99759.09;;;19.91;83.44
66742;BME280;53654;54.152;19.432;2023-08-01T12:38:53;99754.48;;;19.91;83.22
66742;BME280;53654;54.152;19.432;2023-08-01T12:41:21;99752.95;;;19.92;83.16
66742;BME280;53654;54.152;19.432;2023-08-01T12:43:50;99754.61;;;19.94;83.11
66742;BME280;53654;54.152;19.432;2023-08-01T12:46:18;99748.94;;;19.97;83.06
66742;BME280;53654;54.152;19.432;2023-08-01T12:48:46;99741.75;;;20.05;82.90
66742;BME280;53654;54.152;19.432;2023-08-01T12:51:14;99736.83;;;20.12;82.71
66742;BME280;53654;54.152;19.432;2023-08-01T12:53:42;99737.01;;;20.20;81.88
66742;BME280;53654;54.152;19.432;2023-08-01T12:56:12;99735.40;;;20.26;81.71
66742;BME280;53654;54.152;19.432;2023-08-01T12:58:40;99735.66;;;20.31;81.60
66742;BME280;53654;54.152;19.432;2023-08-01T13:01:08;99736.67;;;20.34;81.30
66742;BME280;53654;54.152;19.432;2023-08-01T13:03:37;99739.44;;;20.35;80.64